sensor_id;sensor_type;location;lat;lon;timestamp;temperature;humidity
43183;DHT22;28802;38.578;-0.066;2022-09-28T00:00:08;22.20;99.90
43183;DHT22;28802;38.578;-0.066;2022-09-28T00:02:43;22.10;99.90
43183;DHT22;28802;38.578;-0.066;2022-09-28T00:05:09;22.00;99.90
43183;DHT22;28802;38.578;-0.066;2022-09-28T00:07:37;21.90;99.90
43183;DHT22;28802;38.578;-0.066;2022-09-28T00:10:03;21.90;99.90
43183;DHT22;28802;38.578;-0.066;2022-09-28T00:12:29;21.90;99.90
43183;DHT22;28802;38.578;-0.066;2022-09-28T00:14:56;21.70;99.90
43183;DHT22;28802;38.578;-0.066;2022-09-28T00:17:21;21.70;99.90
43183;DHT22;28802;38.578;-0.066;2022-09-28T00:19:48;21.50;99.90
43183;DHT22;28802;38.578;-0.066;2022-09-28T00:22:14;21.40;99.90
43183;DHT22;28802;38.578;-0.066;2022-09-28T00:24:40;21.30;99.90
43183;DHT22;28802;38.578;-0.066;2022-09-28T00:27:06;21.20;99.90
43183;DHT22;28802;38.578;-0.066;2022-09-28T00:29:36;21.10;99.90
43183;DHT22;28802;38.578;-0.066;2022-09-28T00:32:08;21.00;99.90
43183;DHT22;28802;38.578;-0.066;2022-09-28T00:34:37;20.80;99.90
43183;DHT22;28802;38.578;-0.066;2022-09-28T00:37:06;20.70;99.90
43183;DHT22;28802;38.578;-0.066;2022-09-28T00:39:35;20.70;99.90
43183;DHT22;28802;38.578;-0.066;2022-09-28T00:42:22;20.70;99.90
43183;DHT22;28802;38.578;-0.066;2022-09-28T00:44:52;20.70;99.90
43183;DHT22;28802;38.578;-0.066;2022-09-28T00:50:04;20.90;99.90
43183;DHT22;28802;38.578;-0.066;2022-09-28T00:52:50;20.90;99.90
43183;DHT22;28802;38.578;-0.066;2022-09-28T00:55:22;21.10;99.90
43183;DHT22;28802;38.578;-0.066;2022-09-28T00:57:54;21.10;99.90
43183;DHT22;28802;38.578;-0.066;2022-09-28T01:00:21;21.20;99.90
43183;DHT22;28802;38.578;-0.066;2022-09-28T01:02:47;21.30;99.90
43183;DHT22;28802;38.578;-0.066;2022-09-28T01:05:14;21.50;99.90
43183;DHT22;28802;38.578;-0.066;2022-09-28T01:07:42;21.60;99.90
43183;DHT22;28802;38.578;-0.066;2022-09-28T01:10:09;21.70;99.90
43183;DHT22;28802;38.578;-0.066;2022-09-28T01:12:35;21.70;99.90
43183;DHT22;28802;38.578;-0.066;2022-09-28T01:15:02;21.80;99.90
43183;DHT22;28802;38.578;-0.066;2022-09-28T01:23:10;21.70;99.90
43183;DHT22;28802;38.578;-0.066;2022-09-28T01:25:52;21.70;99.90
43183;DHT22;28802;38.578;-0.066;2022-09-28T01:28:25;21.70;99.90
43183;DHT22;28802;38.578;-0.066;2022-09-28T01:31:12;21.80;99.90
43183;DHT22;28802;38.578;-0.066;2022-09-28T01:33:47;21.90;99.90
43183;DHT22;28802;38.578;-0.066;2022-09-28T01:36:18;21.90;99.90
43183;DHT22;28802;38.578;-0.066;2022-09-28T01:38:52;21.80;99.90
43183;DHT22;28802;38.578;-0.066;2022-09-28T01:41:25;21.70;99.90
43183;DHT22;28802;38.578;-0.066;2022-09-28T01:43:54;21.70;99.90
43183;DHT22;28802;38.578;-0.066;2022-09-28T01:46:24;21.70;99.90
43183;DHT22;28802;38.578;-0.066;2022-09-28T01:49:01;21.70;99.90
43183;DHT22;28802;38.578;-0.066;2022-09-28T01:51:45;21.70;99.90
43183;DHT22;28802;38.578;-0.066;2022-09-28T01:54:16;21.60;99.90
43183;DHT22;28802;38.578;-0.066;2022-09-28T01:59:37;21.50;99.90
43183;DHT22;28802;38.578;-0.066;2022-09-28T02:02:18;21.40;99.90
43183;DHT22;28802;38.578;-0.066;2022-09-28T02:04:58;21.40;99.90
43183;DHT22;28802;38.578;-0.066;2022-09-28T02:08:16;21.50;99.90
43183;DHT22;28802;38.578;-0.066;2022-09-28T02:10:53;21.50;99.90
43183;DHT22;28802;38.578;-0.066;2022-09-28T02:16:41;21.40;99.90
43183;DHT22;28802;38.578;-0.066;2022-09-28T02:19:13;21.30;99.90
43183;DHT22;28802;38.578;-0.066;2022-09-28T02:21:54;21.40;99.90
43183;DHT22;28802;38.578;-0.066;2022-09-28T02:24:45;21.40;99.90
43183;DHT22;28802;38.578;-0.066;2022-09-28T02:30:23;21.30;99.90
43183;DHT22;28802;38.578;-0.066;2022-09-28T02:32:53;21.20;99.90
43183;DHT22;28802;38.578;-0.066;2022-09-28T02:35:21;21.10;99.90
43183;DHT22;28802;38.578;-0.066;2022-09-28T02:37:48;21.00;99.90
43183;DHT22;28802;38.578;-0.066;2022-09-28T02:40:15;21.00;99.90
43183;DHT22;28802;38.578;-0.066;2022-09-28T02:51:19;21.00;99.90
43183;DHT22;28802;38.578;-0.066;2022-09-28T02:57:12;21.10;99.90
43183;DHT22;28802;38.578;-0.066;2022-09-28T03:05:21;20.80;99.90
43183;DHT22;28802;38.578;-0.066;2022-09-28T03:08:03;20.70;99.90
43183;DHT22;28802;38.578;-0.066;2022-09-28T03:10:48;20.80;99.90
43183;DHT22;28802;38.578;-0.066;2022-09-28T03:13:15;20.90;99.90
43183;DHT22;28802;38.578;-0.066;2022-09-28T03:15:42;20.80;99.90
43183;DHT22;28802;38.578;-0.066;2022-09-28T03:18:09;20.70;99.90
43183;DHT22;28802;38.578;-0.066;2022-09-28T03:20:35;20.80;99.90
43183;DHT22;28802;38.578;-0.066;2022-09-28T03:23:02;20.80;99.90
43183;DHT22;28802;38.578;-0.066;2022-09-28T03:25:28;20.90;99.90
43183;DHT22;28802;38.578;-0.066;2022-09-28T03:27:54;20.70;99.90
43183;DHT22;28802;38.578;-0.066;2022-09-28T03:30:20;20.90;99.90
43183;DHT22;28802;38.578;-0.066;2022-09-28T03:32:58;21.00;99.90
43183;DHT22;28802;38.578;-0.066;2022-09-28T03:35:27;21.00;99.90
43183;DHT22;28802;38.578;-0.066;2022-09-28T03:37:56;20.90;99.90
43183;DHT22;28802;38.578;-0.066;2022-09-28T03:40:24;20.80;99.90
43183;DHT22;28802;38.578;-0.066;2022-09-28T03:42:49;20.80;99.90
43183;DHT22;28802;38.578;-0.066;2022-09-28T03:45:16;20.60;99.90
43183;DHT22;28802;38.578;-0.066;2022-09-28T03:47:47;20.50;99.90
43183;DHT22;28802;38.578;-0.066;2022-09-28T03:50:14;20.40;99.90
43183;DHT22;28802;38.578;-0.066;2022-09-28T03:52:40;20.50;99.90
43183;DHT22;28802;38.578;-0.066;2022-09-28T03:55:06;20.40;99.90
43183;DHT22;28802;38.578;-0.066;2022-09-28T03:57:32;20.40;99.90
43183;DHT22;28802;38.578;-0.066;2022-09-28T03:59:58;20.30;99.90
43183;DHT22;28802;38.578;-0.066;2022-09-28T04:02:23;20.30;99.90
43183;DHT22;28802;38.578;-0.066;2022-09-28T04:04:49;20.20;99.90
43183;DHT22;28802;38.578;-0.066;2022-09-28T04:07:15;20.20;99.90
43183;DHT22;28802;38.578;-0.066;2022-09-28T04:09:41;20.10;99.90
43183;DHT22;28802;38.578;-0.066;2022-09-28T04:12:07;20.00;99.90
43183;DHT22;28802;38.578;-0.066;2022-09-28T04:14:34;20.00;99.90
43183;DHT22;28802;38.578;-0.066;2022-09-28T04:17:00;20.00;99.90
43183;DHT22;28802;38.578;-0.066;2022-09-28T04:19:27;20.10;99.90
43183;DHT22;28802;38.578;-0.066;2022-09-28T04:22:06;20.10;99.90
43183;DHT22;28802;38.578;-0.066;2022-09-28T04:24:32;20.00;99.90
43183;DHT22;28802;38.578;-0.066;2022-09-28T04:26:58;19.90;99.90
43183;DHT22;28802;38.578;-0.066;2022-09-28T04:29:44;19.90;99.90
43183;DHT22;28802;38.578;-0.066;2022-09-28T04:32:11;19.80;99.90
43183;DHT22;28802;38.578;-0.066;2022-09-28T04:34:39;19.70;99.90
43183;DHT22;28802;38.578;-0.066;2022-09-28T04:37:05;19.80;99.90
43183;DHT22;28802;38.578;-0.066;2022-09-28T04:39:30;19.70;99.90
43183;DHT22;28802;38.578;-0.066;2022-09-28T04:41:56;19.70;99.90
43183;DHT22;28802;38.578;-0.066;2022-09-28T04:44:22;19.70;99.90
43183;DHT22;28802;38.578;-0.066;2022-09-28T04:46:54;19.80;99.90
43183;DHT22;28802;38.578;-0.066;2022-09-28T04:49:29;19.70;99.90
43183;DHT22;28802;38.578;-0.066;2022-09-28T04:52:21;19.70;99.90
43183;DHT22;28802;38.578;-0.066;2022-09-28T04:54:48;19.70;99.90
43183;DHT22;28802;38.578;-0.066;2022-09-28T04:57:15;19.70;99.90
43183;DHT22;28802;38.578;-0.066;2022-09-28T04:59:40;19.70;99.90
43183;DHT22;28802;38.578;-0.066;2022-09-28T05:02:06;19.70;99.90
43183;DHT22;28802;38.578;-0.066;2022-09-28T05:04:51;19.70;99.90
43183;DHT22;28802;38.578;-0.066;2022-09-28T05:07:37;19.70;99.90
43183;DHT22;28802;38.578;-0.066;2022-09-28T05:10:05;19.70;99.90
43183;DHT22;28802;38.578;-0.066;2022-09-28T05:12:32;19.60;99.90
43183;DHT22;28802;38.578;-0.066;2022-09-28T05:14:58;19.60;99.90
43183;DHT22;28802;38.578;-0.066;2022-09-28T05:17:25;19.60;99.90
43183;DHT22;28802;38.578;-0.066;2022-09-28T05:20:04;19.60;99.90
43183;DHT22;28802;38.578;-0.066;2022-09-28T05:22:31;19.50;99.90
43183;DHT22;28802;38.578;-0.066;2022-09-28T05:24:58;19.40;99.90
43183;DHT22;28802;38.578;-0.066;2022-09-28T05:27:29;19.40;99.90
43183;DHT22;28802;38.578;-0.066;2022-09-28T05:30:05;19.40;99.90
43183;DHT22;28802;38.578;-0.066;2022-09-28T05:32:49;19.40;99.90
43183;DHT22;28802;38.578;-0.066;2022-09-28T05:35:45;19.40;99.90
43183;DHT22;28802;38.578;-0.066;2022-09-28T05:38:11;19.30;99.90
43183;DHT22;28802;38.578;-0.066;2022-09-28T05:40:36;19.30;99.90
43183;DHT22;28802;38.578;-0.066;2022-09-28T05:43:02;19.30;99.90
43183;DHT22;28802;38.578;-0.066;2022-09-28T05:45:29;19.40;99.90
43183;DHT22;28802;38.578;-0.066;2022-09-28T05:47:55;19.30;99.90
43183;DHT22;28802;38.578;-0.066;2022-09-28T05:50:22;19.20;99.90
43183;DHT22;28802;38.578;-0.066;2022-09-28T05:55:24;19.10;99.90
43183;DHT22;28802;38.578;-0.066;2022-09-28T05:57:50;19.10;99.90
43183;DHT22;28802;38.578;-0.066;2022-09-28T06:00:16;19.10;99.90
43183;DHT22;28802;38.578;-0.066;2022-09-28T06:03:10;19.00;99.90
43183;DHT22;28802;38.578;-0.066;2022-09-28T06:05:37;19.10;99.90
43183;DHT22;28802;38.578;-0.066;2022-09-28T06:08:05;19.10;99.90
43183;DHT22;28802;38.578;-0.066;2022-09-28T06:10:33;19.10;99.90
43183;DHT22;28802;38.578;-0.066;2022-09-28T06:13:00;19.10;99.90
43183;DHT22;28802;38.578;-0.066;2022-09-28T06:15:28;19.20;99.90
43183;DHT22;28802;38.578;-0.066;2022-09-28T06:17:57;19.30;99.90
43183;DHT22;28802;38.578;-0.066;2022-09-28T06:20:49;19.40;99.90
43183;DHT22;28802;38.578;-0.066;2022-09-28T06:23:16;19.60;99.90
43183;DHT22;28802;38.578;-0.066;2022-09-28T06:25:42;19.80;99.90
43183;DHT22;28802;38.578;-0.066;2022-09-28T06:28:10;19.90;99.90
43183;DHT22;28802;38.578;-0.066;2022-09-28T06:30:38;20.10;99.90
43183;DHT22;28802;38.578;-0.066;2022-09-28T06:33:10;20.20;99.90
43183;DHT22;28802;38.578;-0.066;2022-09-28T06:35:37;20.10;99.90
43183;DHT22;28802;38.578;-0.066;2022-09-28T06:38:03;20.10;99.90
43183;DHT22;28802;38.578;-0.066;2022-09-28T06:40:30;20.00;99.90
43183;DHT22;28802;38.578;-0.066;2022-09-28T06:42:57;20.00;99.90
43183;DHT22;28802;38.578;-0.066;2022-09-28T06:45:43;20.10;99.90
43183;DHT22;28802;38.578;-0.066;2022-09-28T06:48:43;20.40;99.90
43183;DHT22;28802;38.578;-0.066;2022-09-28T06:51:13;20.80;99.90
43183;DHT22;28802;38.578;-0.066;2022-09-28T06:53:53;21.30;99.90
43183;DHT22;28802;38.578;-0.066;2022-09-28T06:56:41;21.90;99.90
43183;DHT22;28802;38.578;-0.066;2022-09-28T06:59:07;22.60;99.90
43183;DHT22;28802;38.578;-0.066;2022-09-28T07:01:34;22.90;99.90
43183;DHT22;28802;38.578;-0.066;2022-09-28T07:04:06;23.40;99.90
43183;DHT22;28802;38.578;-0.066;2022-09-28T07:06:50;23.80;99.90
43183;DHT22;28802;38.578;-0.066;2022-09-28T07:09:40;24.90;99.90
43183;DHT22;28802;38.578;-0.066;2022-09-28T07:12:12;25.60;99.90
43183;DHT22;28802;38.578;-0.066;2022-09-28T07:14:46;25.90;99.90
43183;DHT22;28802;38.578;-0.066;2022-09-28T07:17:15;26.50;99.90
43183;DHT22;28802;38.578;-0.066;2022-09-28T07:19:43;26.60;99.90
43183;DHT22;28802;38.578;-0.066;2022-09-28T07:22:09;26.50;99.90
43183;DHT22;28802;38.578;-0.066;2022-09-28T07:24:39;26.90;99.90
43183;DHT22;28802;38.578;-0.066;2022-09-28T07:27:24;27.10;99.90
43183;DHT22;28802;38.578;-0.066;2022-09-28T07:30:07;27.30;99.90
43183;DHT22;28802;38.578;-0.066;2022-09-28T07:32:54;27.30;99.90
43183;DHT22;28802;38.578;-0.066;2022-09-28T07:35:56;28.20;99.90
43183;DHT22;28802;38.578;-0.066;2022-09-28T07:38:26;27.60;99.90
43183;DHT22;28802;38.578;-0.066;2022-09-28T07:40:55;27.90;99.90
43183;DHT22;28802;38.578;-0.066;2022-09-28T07:43:40;27.70;99.90
43183;DHT22;28802;38.578;-0.066;2022-09-28T07:46:07;28.60;99.90
43183;DHT22;28802;38.578;-0.066;2022-09-28T07:48:41;28.40;99.90
43183;DHT22;28802;38.578;-0.066;2022-09-28T07:51:22;27.80;99.90
43183;DHT22;28802;38.578;-0.066;2022-09-28T07:53:57;28.00;99.90
43183;DHT22;28802;38.578;-0.066;2022-09-28T07:56:41;28.90;99.90
43183;DHT22;28802;38.578;-0.066;2022-09-28T07:59:27;30.10;99.90
43183;DHT22;28802;38.578;-0.066;2022-09-28T08:02:12;30.40;99.90
43183;DHT22;28802;38.578;-0.066;2022-09-28T08:04:39;27.80;99.90
43183;DHT22;28802;38.578;-0.066;2022-09-28T08:07:10;26.40;99.90
43183;DHT22;28802;38.578;-0.066;2022-09-28T08:09:36;27.60;99.90
43183;DHT22;28802;38.578;-0.066;2022-09-28T08:12:21;29.20;99.90
43183;DHT22;28802;38.578;-0.066;2022-09-28T08:15:16;29.10;99.90
43183;DHT22;28802;38.578;-0.066;2022-09-28T08:17:50;29.30;99.90
43183;DHT22;28802;38.578;-0.066;2022-09-28T08:20:18;29.40;99.90
43183;DHT22;28802;38.578;-0.066;2022-09-28T08:23:04;29.30;99.90
43183;DHT22;28802;38.578;-0.066;2022-09-28T08:25:31;30.40;99.90
43183;DHT22;28802;38.578;-0.066;2022-09-28T08:28:01;30.50;99.90
43183;DHT22;28802;38.578;-0.066;2022-09-28T08:30:29;32.00;99.90
43183;DHT22;28802;38.578;-0.066;2022-09-28T08:33:19;32.70;99.90
43183;DHT22;28802;38.578;-0.066;2022-09-28T08:35:55;33.20;99.90
43183;DHT22;28802;38.578;-0.066;2022-09-28T08:38:49;31.50;99.90
43183;DHT22;28802;38.578;-0.066;2022-09-28T08:41:45;30.50;99.90
43183;DHT22;28802;38.578;-0.066;2022-09-28T08:44:44;30.90;99.90
43183;DHT22;28802;38.578;-0.066;2022-09-28T08:51:05;29.50;99.90
43183;DHT22;28802;38.578;-0.066;2022-09-28T08:53:56;30.00;99.90
43183;DHT22;28802;38.578;-0.066;2022-09-28T08:56:51;30.00;99.90
43183;DHT22;28802;38.578;-0.066;2022-09-28T08:59:25;28.90;99.90
43183;DHT22;28802;38.578;-0.066;2022-09-28T09:02:01;29.50;99.90
43183;DHT22;28802;38.578;-0.066;2022-09-28T09:04:30;30.80;99.90
43183;DHT22;28802;38.578;-0.066;2022-09-28T09:13:25;29.00;99.90
43183;DHT22;28802;38.578;-0.066;2022-09-28T09:22:43;29.60;99.90
43183;DHT22;28802;38.578;-0.066;2022-09-28T09:25:19;30.80;99.90
43183;DHT22;28802;38.578;-0.066;2022-09-28T09:30:48;31.80;99.90
43183;DHT22;28802;38.578;-0.066;2022-09-28T09:42:10;33.10;99.90
43183;DHT22;28802;38.578;-0.066;2022-09-28T09:51:44;30.60;99.90
43183;DHT22;28802;38.578;-0.066;2022-09-28T09:57:20;31.20;99.90
43183;DHT22;28802;38.578;-0.066;2022-09-28T10:00:14;29.30;99.90
43183;DHT22;28802;38.578;-0.066;2022-09-28T10:02:49;28.60;99.90
43183;DHT22;28802;38.578;-0.066;2022-09-28T10:05:38;29.50;99.90
43183;DHT22;28802;38.578;-0.066;2022-09-28T10:10:37;30.00;99.90
43183;DHT22;28802;38.578;-0.066;2022-09-28T10:13:09;29.50;99.90
43183;DHT22;28802;38.578;-0.066;2022-09-28T10:15:35;29.60;99.90
43183;DHT22;28802;38.578;-0.066;2022-09-28T10:18:15;29.30;99.90
43183;DHT22;28802;38.578;-0.066;2022-09-28T10:21:02;28.50;99.90
43183;DHT22;28802;38.578;-0.066;2022-09-28T10:23:43;28.40;99.90
43183;DHT22;28802;38.578;-0.066;2022-09-28T10:26:29;28.20;99.90
43183;DHT22;28802;38.578;-0.066;2022-09-28T10:29:02;28.40;99.90
43183;DHT22;28802;38.578;-0.066;2022-09-28T10:31:39;28.80;99.90
43183;DHT22;28802;38.578;-0.066;2022-09-28T10:34:17;29.40;99.90
43183;DHT22;28802;38.578;-0.066;2022-09-28T10:36:59;29.10;99.90
43183;DHT22;28802;38.578;-0.066;2022-09-28T10:39:44;30.00;99.90
43183;DHT22;28802;38.578;-0.066;2022-09-28T10:42:12;30.30;99.90
43183;DHT22;28802;38.578;-0.066;2022-09-28T10:47:42;29.40;99.90
43183;DHT22;28802;38.578;-0.066;2022-09-28T10:50:38;30.10;99.90
43183;DHT22;28802;38.578;-0.066;2022-09-28T10:56:20;28.40;99.90
43183;DHT22;28802;38.578;-0.066;2022-09-28T10:58:50;28.50;99.90
43183;DHT22;28802;38.578;-0.066;2022-09-28T11:01:29;28.60;99.90
43183;DHT22;28802;38.578;-0.066;2022-09-28T11:04:01;29.00;99.90
43183;DHT22;28802;38.578;-0.066;2022-09-28T11:06:32;29.20;99.90
43183;DHT22;28802;38.578;-0.066;2022-09-28T11:09:08;29.00;99.90
43183;DHT22;28802;38.578;-0.066;2022-09-28T11:11:47;29.80;99.90
43183;DHT22;28802;38.578;-0.066;2022-09-28T11:19:57;29.40;99.90
43183;DHT22;28802;38.578;-0.066;2022-09-28T11:22:35;28.90;99.90
43183;DHT22;28802;38.578;-0.066;2022-09-28T11:33:17;28.90;99.90
43183;DHT22;28802;38.578;-0.066;2022-09-28T11:44:47;28.60;99.90
43183;DHT22;28802;38.578;-0.066;2022-09-28T11:47:44;29.30;99.90
43183;DHT22;28802;38.578;-0.066;2022-09-28T11:52:50;29.70;99.90
43183;DHT22;28802;38.578;-0.066;2022-09-28T11:57:53;29.70;99.90
43183;DHT22;28802;38.578;-0.066;2022-09-28T12:00:21;29.90;99.90
43183;DHT22;28802;38.578;-0.066;2022-09-28T12:05:43;30.30;99.90
43183;DHT22;28802;38.578;-0.066;2022-09-28T12:08:25;30.00;99.90
43183;DHT22;28802;38.578;-0.066;2022-09-28T12:11:18;29.90;99.90
43183;DHT22;28802;38.578;-0.066;2022-09-28T12:14:19;30.00;99.90
43183;DHT22;28802;38.578;-0.066;2022-09-28T12:16:54;29.40;99.90
43183;DHT22;28802;38.578;-0.066;2022-09-28T12:19:49;29.40;99.90
43183;DHT22;28802;38.578;-0.066;2022-09-28T12:22:32;30.20;99.90
43183;DHT22;28802;38.578;-0.066;2022-09-28T12:25:01;29.90;99.90
43183;DHT22;28802;38.578;-0.066;2022-09-28T12:33:19;29.80;99.90
43183;DHT22;28802;38.578;-0.066;2022-09-28T12:55:35;29.20;99.90
43183;DHT22;28802;38.578;-0.066;2022-09-28T13:09:26;28.70;99.90
43183;DHT22;28802;38.578;-0.066;2022-09-28T13:12:35;28.80;99.90
43183;DHT22;28802;38.578;-0.066;2022-09-28T13:18:41;28.20;99.90
43183;DHT22;28802;38.578;-0.066;2022-09-28T13:21:36;27.90;99.90
43183;DHT22;28802;38.578;-0.066;2022-09-28T13:24:08;28.50;99.90
43183;DHT22;28802;38.578;-0.066;2022-09-28T13:26:40;28.60;99.90
43183;DHT22;28802;38.578;-0.066;2022-09-28T13:29:16;28.50;99.90
43183;DHT22;28802;38.578;-0.066;2022-09-28T13:31:49;28.60;99.90
43183;DHT22;28802;38.578;-0.066;2022-09-28T13:34:25;28.40;99.90
43183;DHT22;28802;38.578;-0.066;2022-09-28T13:39:57;27.20;99.90
43183;DHT22;28802;38.578;-0.066;2022-09-28T13:48:11;27.40;99.90
43183;DHT22;28802;38.578;-0.066;2022-09-28T13:56:22;27.90;99.90
43183;DHT22;28802;38.578;-0.066;2022-09-28T13:59:02;27.90;99.90
43183;DHT22;28802;38.578;-0.066;2022-09-28T14:01:49;28.20;99.90
43183;DHT22;28802;38.578;-0.066;2022-09-28T14:04:21;28.60;99.90
43183;DHT22;28802;38.578;-0.066;2022-09-28T14:07:13;28.60;99.90
43183;DHT22;28802;38.578;-0.066;2022-09-28T14:09:46;28.40;99.90
43183;DHT22;28802;38.578;-0.066;2022-09-28T14:12:42;28.50;99.90
43183;DHT22;28802;38.578;-0.066;2022-09-28T14:20:29;28.30;99.90
43183;DHT22;28802;38.578;-0.066;2022-09-28T14:23:51;28.20;99.90
43183;DHT22;28802;38.578;-0.066;2022-09-28T14:31:32;28.00;99.90
43183;DHT22;28802;38.578;-0.066;2022-09-28T14:34:00;28.30;99.90
43183;DHT22;28802;38.578;-0.066;2022-09-28T14:36:40;28.20;99.90
43183;DHT22;28802;38.578;-0.066;2022-09-28T14:39:30;27.90;99.90
43183;DHT22;28802;38.578;-0.066;2022-09-28T14:42:22;27.60;99.90
43183;DHT22;28802;38.578;-0.066;2022-09-28T14:47:41;27.20;99.90
43183;DHT22;28802;38.578;-0.066;2022-09-28T14:50:25;27.50;99.90
43183;DHT22;28802;38.578;-0.066;2022-09-28T14:52:53;27.80;99.90
43183;DHT22;28802;38.578;-0.066;2022-09-28T14:55:30;27.60;99.90
43183;DHT22;28802;38.578;-0.066;2022-09-28T14:57:58;27.60;99.90
43183;DHT22;28802;38.578;-0.066;2022-09-28T15:00:25;27.60;99.90
43183;DHT22;28802;38.578;-0.066;2022-09-28T15:02:59;27.90;99.90
43183;DHT22;28802;38.578;-0.066;2022-09-28T15:05:36;28.30;99.90
43183;DHT22;28802;38.578;-0.066;2022-09-28T15:08:03;28.20;99.90
43183;DHT22;28802;38.578;-0.066;2022-09-28T15:10:32;28.50;99.90
43183;DHT22;28802;38.578;-0.066;2022-09-28T15:13:00;28.40;99.90
43183;DHT22;28802;38.578;-0.066;2022-09-28T15:20:49;28.00;99.90
43183;DHT22;28802;38.578;-0.066;2022-09-28T15:23:34;27.90;99.90
43183;DHT22;28802;38.578;-0.066;2022-09-28T15:26:02;28.00;99.90
43183;DHT22;28802;38.578;-0.066;2022-09-28T15:28:28;27.60;99.90
43183;DHT22;28802;38.578;-0.066;2022-09-28T15:30:59;27.60;99.90
43183;DHT22;28802;38.578;-0.066;2022-09-28T15:33:33;27.50;99.90
43183;DHT22;28802;38.578;-0.066;2022-09-28T15:36:22;27.70;99.90
43183;DHT22;28802;38.578;-0.066;2022-09-28T15:38:55;27.70;99.90
43183;DHT22;28802;38.578;-0.066;2022-09-28T15:41:22;27.70;99.90
43183;DHT22;28802;38.578;-0.066;2022-09-28T15:46:44;27.70;99.90
43183;DHT22;28802;38.578;-0.066;2022-09-28T15:49:25;27.60;99.90
43183;DHT22;28802;38.578;-0.066;2022-09-28T15:51:53;27.60;99.90
43183;DHT22;28802;38.578;-0.066;2022-09-28T15:54:25;27.60;99.90
43183;DHT22;28802;38.578;-0.066;2022-09-28T15:56:55;27.60;99.90
43183;DHT22;28802;38.578;-0.066;2022-09-28T15:59:29;28.00;99.90
43183;DHT22;28802;38.578;-0.066;2022-09-28T16:02:11;28.20;99.90
43183;DHT22;28802;38.578;-0.066;2022-09-28T16:04:47;27.90;99.90
43183;DHT22;28802;38.578;-0.066;2022-09-28T16:07:18;28.00;99.90
43183;DHT22;28802;38.578;-0.066;2022-09-28T16:12:21;27.80;99.90
43183;DHT22;28802;38.578;-0.066;2022-09-28T16:14:53;27.40;99.90
43183;DHT22;28802;38.578;-0.066;2022-09-28T16:17:31;27.30;99.90
43183;DHT22;28802;38.578;-0.066;2022-09-28T16:20:00;27.20;99.90
43183;DHT22;28802;38.578;-0.066;2022-09-28T16:22:29;27.10;99.90
43183;DHT22;28802;38.578;-0.066;2022-09-28T16:24:58;27.00;99.90
43183;DHT22;28802;38.578;-0.066;2022-09-28T16:27:42;26.90;99.90
43183;DHT22;28802;38.578;-0.066;2022-09-28T16:38:11;26.50;99.90
43183;DHT22;28802;38.578;-0.066;2022-09-28T16:40:46;26.40;99.90
43183;DHT22;28802;38.578;-0.066;2022-09-28T16:43:40;26.40;99.90
43183;DHT22;28802;38.578;-0.066;2022-09-28T16:48:35;26.40;99.90
43183;DHT22;28802;38.578;-0.066;2022-09-28T16:51:01;26.30;99.90
43183;DHT22;28802;38.578;-0.066;2022-09-28T16:53:27;26.30;99.90
43183;DHT22;28802;38.578;-0.066;2022-09-28T16:56:12;26.20;99.90
43183;DHT22;28802;38.578;-0.066;2022-09-28T16:58:38;26.20;99.90
43183;DHT22;28802;38.578;-0.066;2022-09-28T17:01:05;26.20;99.90
43183;DHT22;28802;38.578;-0.066;2022-09-28T17:03:34;26.10;99.90
43183;DHT22;28802;38.578;-0.066;2022-09-28T17:06:03;26.00;99.90
43183;DHT22;28802;38.578;-0.066;2022-09-28T17:08:30;26.00;99.90
43183;DHT22;28802;38.578;-0.066;2022-09-28T17:11:00;25.90;99.90
43183;DHT22;28802;38.578;-0.066;2022-09-28T17:13:31;25.90;99.90
43183;DHT22;28802;38.578;-0.066;2022-09-28T17:15:59;25.80;99.90
43183;DHT22;28802;38.578;-0.066;2022-09-28T17:18:26;25.80;99.90
43183;DHT22;28802;38.578;-0.066;2022-09-28T17:20:54;25.70;99.90
43183;DHT22;28802;38.578;-0.066;2022-09-28T17:23:21;25.70;99.90
43183;DHT22;28802;38.578;-0.066;2022-09-28T17:25:47;25.70;99.90
43183;DHT22;28802;38.578;-0.066;2022-09-28T17:28:29;25.70;99.90
43183;DHT22;28802;38.578;-0.066;2022-09-28T17:30:56;25.60;99.90
43183;DHT22;28802;38.578;-0.066;2022-09-28T17:33:22;25.60;99.90
43183;DHT22;28802;38.578;-0.066;2022-09-28T17:35:58;25.60;99.90
43183;DHT22;28802;38.578;-0.066;2022-09-28T17:38:25;25.60;99.90
43183;DHT22;28802;38.578;-0.066;2022-09-28T17:40:51;25.50;99.90
43183;DHT22;28802;38.578;-0.066;2022-09-28T17:43:17;25.50;99.90
43183;DHT22;28802;38.578;-0.066;2022-09-28T17:45:46;25.50;99.90
43183;DHT22;28802;38.578;-0.066;2022-09-28T17:48:14;25.50;99.90
43183;DHT22;28802;38.578;-0.066;2022-09-28T17:50:41;25.50;99.90
43183;DHT22;28802;38.578;-0.066;2022-09-28T17:53:08;25.50;99.90
43183;DHT22;28802;38.578;-0.066;2022-09-28T17:55:35;25.50;99.90
43183;DHT22;28802;38.578;-0.066;2022-09-28T17:58:18;25.50;99.90
43183;DHT22;28802;38.578;-0.066;2022-09-28T18:00:48;25.50;99.90
43183;DHT22;28802;38.578;-0.066;2022-09-28T18:03:17;25.40;99.90
43183;DHT22;28802;38.578;-0.066;2022-09-28T18:05:44;25.40;99.90
43183;DHT22;28802;38.578;-0.066;2022-09-28T18:08:13;25.30;99.90
43183;DHT22;28802;38.578;-0.066;2022-09-28T18:10:40;25.30;99.90
43183;DHT22;28802;38.578;-0.066;2022-09-28T18:13:06;25.20;99.90
43183;DHT22;28802;38.578;-0.066;2022-09-28T18:15:31;25.10;99.90
43183;DHT22;28802;38.578;-0.066;2022-09-28T18:17:57;25.10;99.90
43183;DHT22;28802;38.578;-0.066;2022-09-28T18:20:23;25.10;99.90
43183;DHT22;28802;38.578;-0.066;2022-09-28T18:22:49;25.10;99.90
43183;DHT22;28802;38.578;-0.066;2022-09-28T18:25:15;25.00;99.90
43183;DHT22;28802;38.578;-0.066;2022-09-28T18:27:41;25.00;99.90
43183;DHT22;28802;38.578;-0.066;2022-09-28T18:30:08;24.90;99.90
43183;DHT22;28802;38.578;-0.066;2022-09-28T18:32:35;24.90;99.90
43183;DHT22;28802;38.578;-0.066;2022-09-28T18:35:03;24.90;99.90
43183;DHT22;28802;38.578;-0.066;2022-09-28T18:37:29;24.80;99.90
43183;DHT22;28802;38.578;-0.066;2022-09-28T18:39:55;24.80;99.90
43183;DHT22;28802;38.578;-0.066;2022-09-28T18:42:21;24.70;99.90
43183;DHT22;28802;38.578;-0.066;2022-09-28T18:44:47;24.60;99.90
43183;DHT22;28802;38.578;-0.066;2022-09-28T18:47:13;24.60;99.90
43183;DHT22;28802;38.578;-0.066;2022-09-28T18:49:40;24.50;99.90
43183;DHT22;28802;38.578;-0.066;2022-09-28T18:52:06;24.50;99.90
43183;DHT22;28802;38.578;-0.066;2022-09-28T18:54:32;24.50;99.90
43183;DHT22;28802;38.578;-0.066;2022-09-28T18:56:58;24.50;99.90
43183;DHT22;28802;38.578;-0.066;2022-09-28T18:59:24;24.50;99.90
43183;DHT22;28802;38.578;-0.066;2022-09-28T19:01:50;24.50;99.90
43183;DHT22;28802;38.578;-0.066;2022-09-28T19:04:17;24.50;99.90
43183;DHT22;28802;38.578;-0.066;2022-09-28T19:06:45;24.50;99.90
43183;DHT22;28802;38.578;-0.066;2022-09-28T19:09:18;24.50;99.90
43183;DHT22;28802;38.578;-0.066;2022-09-28T19:11:45;24.60;99.90
43183;DHT22;28802;38.578;-0.066;2022-09-28T19:14:11;24.50;99.90
43183;DHT22;28802;38.578;-0.066;2022-09-28T19:16:39;24.60;99.90